createdAt,value
2017-08-07T05:32:17.496Z,90
2017-08-07T05:32:42.967Z,90
2017-08-07T05:33:08.411Z,90
2017-08-07T05:33:33.871Z,90
2017-08-07T05:33:59.313Z,90
2017-08-07T05:34:24.790Z,90
2017-08-07T05:34:50.281Z,90
2017-08-07T05:35:15.735Z,90
2017-08-07T05:35:41.245Z,95
2017-08-07T05:36:06.720Z,95
2017-08-07T05:36:32.234Z,95
2017-08-07T05:36:57.746Z,95
2017-08-07T05:37:23.212Z,95
2017-08-07T05:37:48.669Z,95
2017-08-07T05:38:14.134Z,95
2017-08-07T05:38:39.589Z,95
2017-08-07T05:39:05.048Z,95
2017-08-07T05:39:30.505Z,95
2017-08-07T05:39:55.991Z,95
2017-08-07T05:40:21.496Z,95
2017-08-07T05:40:46.975Z,95
2017-08-07T05:41:12.421Z,95
2017-08-07T05:41:37.894Z,95
2017-08-07T05:42:03.364Z,100
2017-08-07T05:42:28.875Z,100
2017-08-07T05:42:54.296Z,100
2017-08-07T05:43:19.780Z,100
2017-08-07T05:43:45.240Z,100
2017-08-07T05:44:10.697Z,105
2017-08-07T05:44:36.175Z,105
2017-08-07T05:45:01.671Z,105
2017-08-07T05:45:27.127Z,105
2017-08-07T05:45:52.554Z,110
2017-08-07T05:46:18.037Z,110
2017-08-07T05:46:43.517Z,110
2017-08-07T05:47:08.964Z,110
2017-08-07T05:47:34.428Z,110
2017-08-07T05:48:00.006Z,110
2017-08-07T05:48:25.478Z,115
2017-08-07T05:48:50.964Z,110
2017-08-07T05:49:16.427Z,110
2017-08-07T05:49:41.866Z,110
2017-08-07T05:50:07.338Z,110
2017-08-07T05:50:32.821Z,110
2017-08-07T05:50:58.320Z,110
2017-08-07T05:51:23.761Z,115
2017-08-07T05:51:49.233Z,120
2017-08-07T05:52:14.783Z,120
2017-08-07T05:52:40.210Z,120
2017-08-07T05:53:05.680Z,120
2017-08-07T05:53:31.129Z,115
2017-08-07T05:53:56.604Z,115
2017-08-07T05:54:22.071Z,120
2017-08-07T05:54:47.516Z,130
2017-08-07T05:55:12.982Z,125
2017-08-07T05:55:38.428Z,125
2017-08-07T05:56:03.889Z,130
2017-08-07T05:56:29.371Z,135
2017-08-07T05:56:54.864Z,140
2017-08-07T05:57:20.316Z,140
2017-08-07T05:57:45.820Z,140
2017-08-07T05:58:11.328Z,150
2017-08-07T05:58:36.780Z,170
2017-08-07T05:59:02.274Z,225
2017-08-07T05:59:27.738Z,290
2017-08-07T05:59:53.256Z,370
2017-08-07T06:00:18.713Z,460
2017-08-07T06:00:44.166Z,560
2017-08-07T06:01:09.663Z,630
2017-08-07T06:01:35.141Z,695
2017-08-07T06:02:00.638Z,720
2017-08-07T06:02:26.111Z,725
2017-08-07T06:02:51.587Z,720
2017-08-07T06:03:17.107Z,710
2017-08-07T06:03:42.575Z,715
2017-08-07T06:04:08.107Z,725
2017-08-07T06:04:33.535Z,760
2017-08-07T06:04:58.994Z,775
2017-08-07T06:05:24.483Z,785
2017-08-07T06:05:49.964Z,760
2017-08-07T06:06:15.465Z,745
2017-08-07T06:06:40.903Z,710
2017-08-07T06:07:06.392Z,680
2017-08-07T06:07:31.875Z,640
2017-08-07T06:07:57.391Z,555
2017-08-07T06:08:22.840Z,460
2017-08-07T06:08:48.405Z,360
2017-08-07T06:09:13.840Z,265
2017-08-07T06:09:39.316Z,190
2017-08-07T06:10:04.783Z,165
2017-08-07T06:10:30.235Z,155
2017-08-07T06:10:55.703Z,150
2017-08-07T06:11:21.195Z,145
2017-08-07T06:11:46.621Z,140
2017-08-07T06:12:12.073Z,140
2017-08-07T06:12:37.565Z,140
2017-08-07T06:13:03.040Z,135
2017-08-07T06:13:28.504Z,135
2017-08-07T06:13:54.003Z,135
2017-08-07T06:14:19.538Z,135
2017-08-07T06:14:45.026Z,135
2017-08-07T06:15:10.469Z,135
2017-08-07T06:15:35.928Z,135
2017-08-07T06:16:01.386Z,135
2017-08-07T06:16:26.875Z,135
2017-08-07T06:16:52.332Z,140
2017-08-07T06:17:17.781Z,140
2017-08-07T06:17:43.270Z,140
2017-08-07T06:18:08.763Z,140
2017-08-07T06:18:34.200Z,140
2017-08-07T06:18:59.648Z,140
2017-08-07T06:19:25.092Z,140
2017-08-07T06:19:50.639Z,140
2017-08-07T06:20:16.089Z,140
2017-08-07T06:20:41.543Z,140
2017-08-07T06:21:06.959Z,140
2017-08-07T06:21:32.438Z,140
2017-08-07T06:21:57.927Z,140
2017-08-07T06:22:23.471Z,140
2017-08-07T06:22:48.984Z,140
2017-08-07T06:23:14.417Z,140
2017-08-07T06:23:39.896Z,140
2017-08-07T06:24:05.346Z,140
2017-08-07T06:24:30.867Z,140
2017-08-07T06:24:56.364Z,140
2017-08-07T06:25:21.769Z,140
2017-08-07T06:25:47.245Z,140
2017-08-07T06:26:12.705Z,140
2017-08-07T06:26:38.174Z,140
2017-08-07T06:27:03.649Z,145
2017-08-07T06:27:29.107Z,145
2017-08-07T06:27:54.581Z,150
2017-08-07T06:28:20.072Z,155
2017-08-07T06:28:45.559Z,155
2017-08-07T06:29:11.032Z,160
2017-08-07T06:29:36.484Z,160
2017-08-07T06:30:01.993Z,160
2017-08-07T06:30:27.475Z,160
2017-08-07T06:30:52.941Z,160
2017-08-07T06:31:18.403Z,155
2017-08-07T06:31:43.857Z,155
2017-08-07T06:32:09.326Z,155
2017-08-07T06:32:34.795Z,150
2017-08-07T06:33:00.225Z,150
2017-08-07T06:33:25.694Z,145
2017-08-07T06:33:51.156Z,145
2017-08-07T06:34:16.697Z,145
2017-08-07T06:34:42.191Z,145
2017-08-07T06:35:07.672Z,145
2017-08-07T06:35:33.222Z,145
2017-08-07T06:35:58.648Z,140
2017-08-07T06:36:24.093Z,145
2017-08-07T06:36:49.552Z,145
2017-08-07T06:37:15.029Z,145
2017-08-07T06:37:40.498Z,140
2017-08-07T06:38:05.966Z,140
2017-08-07T06:38:31.538Z,145
2017-08-07T06:38:56.966Z,145
2017-08-07T06:39:22.468Z,145
2017-08-07T06:39:47.942Z,145
2017-08-07T06:40:13.456Z,145
2017-08-07T06:40:38.920Z,145
2017-08-07T06:41:04.409Z,145
2017-08-07T06:41:29.896Z,145
2017-08-07T06:41:55.375Z,140
2017-08-07T06:42:20.844Z,140
2017-08-07T06:42:46.332Z,140
2017-08-07T06:43:11.775Z,135
2017-08-07T06:43:37.258Z,140
2017-08-07T06:44:02.730Z,95
2017-08-07T06:44:28.219Z,90
2017-08-07T06:44:53.677Z,90
2017-08-07T06:45:19.166Z,90
2017-08-07T06:45:44.619Z,90
2017-08-07T06:46:10.089Z,90
2017-08-07T06:46:35.561Z,95
2017-08-07T06:47:01.033Z,95
2017-08-07T06:47:26.531Z,95
2017-08-07T06:47:51.970Z,100
2017-08-07T06:48:17.457Z,105
2017-08-07T06:48:42.951Z,110
2017-08-07T06:49:08.431Z,115
2017-08-07T06:49:33.893Z,140
2017-08-07T06:49:59.376Z,125
2017-08-07T06:50:24.827Z,125
2017-08-07T06:50:50.329Z,125
2017-08-07T06:51:15.823Z,125
2017-08-07T06:51:41.308Z,125
2017-08-07T06:52:06.781Z,130
2017-08-07T06:52:32.298Z,135
2017-08-07T06:52:57.741Z,140
2017-08-07T06:53:23.219Z,135
2017-08-07T06:53:48.662Z,140
2017-08-07T06:54:14.151Z,140
2017-08-07T06:54:39.585Z,140
2017-08-07T06:55:05.090Z,145
2017-08-07T06:55:30.582Z,145
2017-08-07T06:55:56.073Z,145
2017-08-07T06:56:21.551Z,150
2017-08-07T06:56:47.059Z,155
2017-08-07T06:57:12.505Z,155
2017-08-07T06:57:37.978Z,155
2017-08-07T06:58:03.487Z,160
2017-08-07T06:58:28.950Z,160
2017-08-07T06:58:54.431Z,155
2017-08-07T06:59:19.934Z,155
2017-08-07T06:59:45.470Z,155
2017-08-07T07:00:10.899Z,155
2017-08-07T07:00:36.369Z,160
2017-08-07T07:01:01.860Z,155
2017-08-07T07:01:27.354Z,150
2017-08-07T07:01:52.829Z,150
2017-08-07T07:02:18.306Z,155
2017-08-07T07:02:43.790Z,155
2017-08-07T07:03:09.284Z,160
2017-08-07T07:03:34.767Z,165
2017-08-07T07:04:00.228Z,170
2017-08-07T07:04:25.695Z,175
2017-08-07T07:04:51.153Z,210
2017-08-07T07:05:16.624Z,185
2017-08-07T07:05:42.077Z,215
2017-08-07T07:06:07.533Z,165
2017-08-07T07:06:32.993Z,160
2017-08-07T07:06:58.488Z,160
2017-08-07T07:07:23.986Z,165
2017-08-07T07:07:49.453Z,160
2017-08-07T07:08:14.938Z,170
2017-08-07T07:09:28.749Z,150
2017-08-07T07:09:54.236Z,145
2017-08-07T07:10:19.689Z,145
2017-08-07T07:10:45.194Z,145
2017-08-07T07:11:10.681Z,145
2017-08-07T07:11:36.182Z,135
2017-08-07T07:12:01.672Z,135
2017-08-07T07:12:27.165Z,135
2017-08-07T07:12:52.642Z,140
2017-08-07T07:13:18.133Z,170
2017-08-07T07:13:43.585Z,155
2017-08-07T07:14:09.085Z,185
2017-08-07T07:14:34.581Z,160
2017-08-07T07:15:00.094Z,155
2017-08-07T07:15:25.556Z,170
2017-08-07T07:15:51.016Z,170
2017-08-07T07:16:16.462Z,170
2017-08-07T07:16:41.941Z,165
2017-08-07T07:17:07.400Z,160
2017-08-07T07:17:32.861Z,160
2017-08-07T07:17:58.343Z,155
2017-08-07T07:18:23.793Z,155
2017-08-07T07:18:49.236Z,155
2017-08-07T07:19:14.708Z,160
2017-08-07T07:19:40.172Z,155
2017-08-07T07:20:05.581Z,155
2017-08-07T07:20:31.060Z,155
2017-08-07T07:20:56.549Z,155
2017-08-07T07:21:22.018Z,155
2017-08-07T07:21:47.526Z,155
2017-08-07T07:22:13.001Z,150
2017-08-07T07:22:38.505Z,150
2017-08-07T07:23:03.953Z,150
2017-08-07T07:23:29.380Z,145
2017-08-07T07:23:54.817Z,145
2017-08-07T07:24:20.327Z,145
2017-08-07T07:24:45.806Z,145
2017-08-07T07:25:11.246Z,140
2017-08-07T07:25:36.699Z,140
2017-08-07T07:26:02.189Z,140
2017-08-07T07:26:27.711Z,140
2017-08-07T07:26:53.212Z,140
2017-08-07T07:27:18.680Z,140
2017-08-07T07:27:44.139Z,140
2017-08-07T07:28:09.621Z,140
2017-08-07T07:28:35.081Z,140
2017-08-07T07:29:00.565Z,140
2017-08-07T07:29:26.056Z,140
2017-08-07T07:29:51.582Z,140
2017-08-07T07:30:17.044Z,140
2017-08-07T07:30:42.509Z,140
2017-08-07T07:31:07.962Z,140
2017-08-07T07:31:33.393Z,140
2017-08-07T07:31:58.953Z,140
2017-08-07T07:32:24.418Z,145
2017-08-07T07:32:49.879Z,145
2017-08-07T07:33:15.357Z,140
2017-08-07T07:33:40.841Z,125
2017-08-07T07:34:06.306Z,145
2017-08-07T07:34:31.766Z,145
2017-08-07T07:34:57.229Z,145
2017-08-07T07:35:22.691Z,150
2017-08-07T07:35:48.165Z,155
2017-08-07T07:36:13.648Z,155
2017-08-07T07:36:39.092Z,165
2017-08-07T07:37:04.553Z,135
2017-08-07T07:37:30.001Z,155
2017-08-07T07:37:55.497Z,115
2017-08-07T07:38:20.944Z,135
2017-08-07T07:38:46.401Z,135
2017-08-07T07:39:11.880Z,120
2017-08-07T07:39:37.319Z,160
2017-08-07T07:40:02.781Z,125
2017-08-07T07:40:28.230Z,175
2017-08-07T07:40:53.704Z,135
2017-08-07T07:41:19.194Z,130
2017-08-07T07:41:44.636Z,150
2017-08-07T07:42:10.089Z,140
2017-08-07T07:42:35.584Z,190
2017-08-07T07:43:00.995Z,155
2017-08-07T07:43:26.434Z,155
2017-08-07T07:43:51.863Z,155
2017-08-07T07:44:17.323Z,160
2017-08-07T07:44:42.799Z,205
2017-08-07T07:45:08.285Z,215
2017-08-07T07:45:33.749Z,190
2017-08-07T07:45:59.250Z,170
2017-08-07T07:46:24.783Z,170
2017-08-07T07:46:50.291Z,205
2017-08-07T07:47:15.766Z,175
2017-08-07T07:47:41.245Z,175
2017-08-07T07:48:06.723Z,195
2017-08-07T07:48:32.170Z,215
2017-08-07T07:48:57.643Z,200
2017-08-07T07:49:23.096Z,210
2017-08-07T07:49:48.536Z,205
2017-08-07T07:50:14.036Z,190
2017-08-07T07:50:39.515Z,210
2017-08-07T07:51:04.973Z,160
2017-08-07T07:51:30.438Z,170
2017-08-07T07:51:55.928Z,165
2017-08-07T07:52:21.353Z,160
2017-08-07T07:52:46.838Z,185
2017-08-07T07:53:12.317Z,160
2017-08-07T07:54:36.269Z,205
2017-08-07T07:55:01.744Z,180
2017-08-07T07:55:27.175Z,205
2017-08-07T07:55:52.664Z,185
2017-08-07T07:56:18.080Z,195
2017-08-07T07:56:43.616Z,200
2017-08-07T07:57:09.066Z,200
2017-08-07T07:57:34.494Z,200
2017-08-07T07:57:59.981Z,200
2017-08-07T07:58:25.430Z,200
2017-08-07T07:58:50.892Z,190
2017-08-07T07:59:16.436Z,195
2017-08-07T07:59:41.858Z,185
2017-08-07T08:00:07.289Z,195
2017-08-07T08:00:32.736Z,210
2017-08-07T08:00:58.213Z,215
2017-08-07T08:01:23.673Z,215
2017-08-07T08:01:49.200Z,215
2017-08-07T08:02:14.626Z,210
2017-08-07T08:02:40.060Z,205
2017-08-07T08:03:05.517Z,200
2017-08-07T08:03:30.957Z,190
2017-08-07T08:03:56.419Z,180
2017-08-07T08:04:21.920Z,170
2017-08-07T08:04:47.382Z,165
2017-08-07T08:05:12.843Z,155
2017-08-07T08:05:38.312Z,150
2017-08-07T08:06:03.822Z,150
2017-08-07T08:06:29.307Z,150
2017-08-07T08:06:54.796Z,145
2017-08-07T08:07:20.207Z,145
2017-08-07T08:07:45.666Z,145
2017-08-07T08:08:11.110Z,145
2017-08-07T08:08:36.576Z,145
2017-08-07T08:09:02.034Z,145
2017-08-07T08:09:27.480Z,145
2017-08-07T08:09:52.956Z,150
2017-08-07T08:10:18.420Z,145
2017-08-07T08:10:43.885Z,145
2017-08-07T08:11:09.392Z,145
2017-08-07T08:11:34.777Z,145
2017-08-07T08:12:00.321Z,145
2017-08-07T08:12:25.770Z,145
2017-08-07T08:12:51.227Z,140
2017-08-07T08:13:16.678Z,140
2017-08-07T08:13:42.142Z,140
2017-08-07T08:14:07.578Z,140
2017-08-07T08:14:33.060Z,135
2017-08-07T08:14:58.638Z,135
2017-08-07T08:15:24.098Z,140
2017-08-07T08:15:49.542Z,130
2017-08-07T08:16:15.014Z,130
2017-08-07T08:16:40.526Z,130
2017-08-07T08:17:06.010Z,130
2017-08-07T08:17:31.454Z,130
2017-08-07T08:17:56.945Z,135
2017-08-07T08:18:22.412Z,130
2017-08-07T08:18:47.984Z,130
2017-08-07T08:19:13.421Z,130
2017-08-07T08:19:38.823Z,130
2017-08-07T08:20:04.306Z,130
2017-08-07T08:20:29.743Z,130
2017-08-07T08:20:55.190Z,125
2017-08-07T08:21:20.714Z,130
2017-08-07T08:21:46.193Z,130
2017-08-07T08:22:11.646Z,130
2017-08-07T08:22:37.079Z,125
2017-08-07T08:23:02.507Z,125
2017-08-07T08:23:27.996Z,125
2017-08-07T08:23:53.521Z,125
2017-08-07T08:24:19.122Z,125
2017-08-07T08:24:44.599Z,125
2017-08-07T08:25:10.028Z,125
2017-08-07T08:25:35.475Z,125
2017-08-07T08:26:00.938Z,125
2017-08-07T08:26:26.407Z,125
2017-08-07T08:26:51.853Z,125
2017-08-07T08:27:17.338Z,125
2017-08-07T08:27:42.843Z,125
2017-08-07T08:28:08.290Z,125
2017-08-07T08:28:33.770Z,125
2017-08-07T08:28:59.230Z,120
2017-08-07T08:29:24.696Z,125
2017-08-07T08:29:50.152Z,125
2017-08-07T08:30:15.587Z,125
2017-08-07T08:30:41.055Z,125
2017-08-07T08:31:06.469Z,120
2017-08-07T08:31:31.927Z,120
2017-08-07T08:31:57.363Z,120
2017-08-07T08:32:22.837Z,125
2017-08-07T08:32:48.343Z,125
2017-08-07T08:34:07.215Z,125
2017-08-07T08:34:32.676Z,125
2017-08-07T08:34:58.203Z,125
2017-08-07T08:35:23.613Z,125
2017-08-07T08:35:49.069Z,125
2017-08-07T08:36:14.490Z,125
2017-08-07T08:36:39.978Z,120
2017-08-07T08:37:05.424Z,120
2017-08-07T08:37:30.905Z,120
2017-08-07T08:37:56.335Z,120
2017-08-07T08:38:21.799Z,120
2017-08-07T08:38:47.253Z,125
2017-08-07T08:39:12.685Z,125
2017-08-07T08:39:38.138Z,125
2017-08-07T08:40:03.617Z,125
2017-08-07T08:40:29.083Z,125
2017-08-07T08:40:54.515Z,125
2017-08-07T08:41:19.983Z,125
2017-08-07T08:41:45.406Z,125
2017-08-07T08:42:10.861Z,125
2017-08-07T08:42:36.326Z,125
2017-08-07T08:43:01.780Z,125
2017-08-07T08:43:27.224Z,125
2017-08-07T08:43:52.725Z,120
2017-08-07T08:44:18.214Z,120
2017-08-07T08:44:43.682Z,120
2017-08-07T08:45:09.104Z,120
2017-08-07T08:45:34.577Z,120
2017-08-07T08:46:00.028Z,120
2017-08-07T08:46:25.523Z,120
2017-08-07T08:46:51.008Z,120
2017-08-07T08:47:16.529Z,120
2017-08-07T08:47:42.028Z,120
2017-08-07T08:48:07.517Z,120
2017-08-07T08:48:33.025Z,115
2017-08-07T08:48:58.501Z,120
2017-08-07T08:49:23.972Z,120
2017-08-07T08:49:49.412Z,120
2017-08-07T08:50:14.906Z,120
2017-08-07T08:50:40.400Z,120
2017-08-07T08:51:05.927Z,120
2017-08-07T08:51:31.444Z,120
2017-08-07T08:51:56.905Z,120
2017-08-07T08:52:22.421Z,120
2017-08-07T08:52:47.925Z,120
2017-08-07T08:53:13.401Z,120
2017-08-07T08:53:38.911Z,120
2017-08-07T08:54:04.385Z,120
2017-08-07T08:54:29.848Z,120
2017-08-07T08:54:55.316Z,115
2017-08-07T08:55:20.766Z,110
2017-08-07T08:55:46.264Z,115
2017-08-07T08:56:11.754Z,110
2017-08-07T08:56:37.275Z,115
2017-08-07T08:57:02.770Z,115
2017-08-07T08:57:28.201Z,115
2017-08-07T08:57:53.690Z,115
2017-08-07T08:58:19.172Z,115
2017-08-07T08:58:44.694Z,115
2017-08-07T08:59:10.195Z,115
2017-08-07T08:59:35.814Z,120
2017-08-07T09:00:01.362Z,115
2017-08-07T09:00:26.868Z,115
2017-08-07T09:00:52.347Z,120
2017-08-07T09:01:17.814Z,120
2017-08-07T09:01:43.324Z,120
2017-08-07T09:02:08.810Z,120
2017-08-07T09:02:34.399Z,120
2017-08-07T09:02:59.788Z,125
2017-08-07T09:03:25.274Z,120
2017-08-07T09:03:50.748Z,120
2017-08-07T09:04:16.234Z,120
2017-08-07T09:04:41.725Z,120
2017-08-07T09:05:07.182Z,120
2017-08-07T09:05:32.679Z,120
2017-08-07T09:05:58.174Z,120
2017-08-07T09:06:23.680Z,120
2017-08-07T09:06:49.143Z,125
2017-08-07T09:07:14.648Z,125
2017-08-07T09:07:40.059Z,125
2017-08-07T09:08:05.581Z,125
2017-08-07T09:08:31.018Z,125
2017-08-07T09:08:56.504Z,125
2017-08-07T09:09:21.971Z,125
2017-08-07T09:09:47.487Z,130
2017-08-07T09:10:12.945Z,125
2017-08-07T09:10:38.558Z,125
2017-08-07T09:11:04.027Z,120
2017-08-07T09:11:29.503Z,120
2017-08-07T09:11:55.035Z,120
2017-08-07T09:12:20.512Z,125
2017-08-07T09:12:46.048Z,120
2017-08-07T09:13:11.509Z,125
2017-08-07T09:13:36.992Z,125
2017-08-07T09:14:02.577Z,125
2017-08-07T09:14:28.094Z,125
2017-08-07T09:14:53.540Z,125
2017-08-07T09:15:19.005Z,125
2017-08-07T09:15:44.554Z,125
2017-08-07T09:16:10.074Z,125
2017-08-07T09:16:35.570Z,125
2017-08-07T09:17:01.051Z,125
2017-08-07T09:17:26.554Z,125
2017-08-07T09:17:52.017Z,125
2017-08-07T09:18:17.506Z,125
2017-08-07T09:18:42.964Z,125
2017-08-07T09:19:08.435Z,125
2017-08-07T09:19:33.878Z,125
2017-08-07T09:19:59.349Z,125
2017-08-07T09:20:24.825Z,130
2017-08-07T09:20:50.352Z,130
2017-08-07T09:21:15.820Z,125
2017-08-07T09:21:41.282Z,125
2017-08-07T09:22:06.742Z,125
2017-08-07T09:22:32.191Z,125
2017-08-07T09:22:57.644Z,125
2017-08-07T09:23:23.160Z,125
2017-08-07T09:23:48.649Z,125
2017-08-07T09:24:14.116Z,125
2017-08-07T09:24:39.705Z,125
2017-08-07T09:25:05.131Z,125
2017-08-07T09:25:30.624Z,125
2017-08-07T09:25:56.120Z,125
2017-08-07T09:26:21.570Z,125
2017-08-07T09:26:47.099Z,125
2017-08-07T09:27:12.586Z,125
2017-08-07T09:27:38.045Z,125
2017-08-07T09:28:03.561Z,125
2017-08-07T09:28:29.054Z,125
2017-08-07T09:28:54.521Z,125
2017-08-07T09:29:19.976Z,125
2017-08-07T09:29:45.433Z,125
2017-08-07T09:30:10.885Z,125
2017-08-07T09:30:36.388Z,125
2017-08-07T09:31:01.904Z,125
2017-08-07T09:31:27.408Z,125
2017-08-07T09:31:52.877Z,125
2017-08-07T09:32:18.349Z,125
2017-08-07T09:32:43.845Z,125
2017-08-07T09:33:09.318Z,125
2017-08-07T09:34:23.142Z,125
2017-08-07T09:34:48.621Z,125
2017-08-07T09:35:14.082Z,125
2017-08-07T09:35:39.590Z,125
2017-08-07T09:36:05.029Z,125
2017-08-07T09:36:30.499Z,125
2017-08-07T09:36:56.025Z,125
2017-08-07T09:37:21.481Z,125
2017-08-07T09:37:46.960Z,125
2017-08-07T09:38:12.474Z,125
2017-08-07T09:38:37.960Z,125
2017-08-07T09:39:03.472Z,125
2017-08-07T09:39:28.968Z,125
2017-08-07T09:39:54.435Z,125
2017-08-07T09:40:19.897Z,130
2017-08-07T09:40:45.411Z,130
2017-08-07T09:41:10.860Z,125
2017-08-07T09:42:29.752Z,135
2017-08-07T09:42:55.220Z,135
2017-08-07T09:43:20.660Z,135
2017-08-07T09:43:46.140Z,135
2017-08-07T09:44:11.635Z,135
2017-08-07T09:44:37.078Z,140
2017-08-07T09:45:02.593Z,140
2017-08-07T09:45:28.150Z,140
2017-08-07T09:45:53.625Z,150
2017-08-07T09:46:19.149Z,150
2017-08-07T09:46:44.627Z,150
2017-08-07T09:47:10.105Z,155
2017-08-07T09:47:35.600Z,155
2017-08-07T09:48:01.067Z,160
2017-08-07T09:48:26.669Z,165
2017-08-07T09:48:52.223Z,150
2017-08-07T09:49:17.665Z,155
2017-08-07T09:49:43.124Z,155
2017-08-07T09:50:08.577Z,160
2017-08-07T09:50:34.003Z,180
2017-08-07T09:50:59.490Z,180
2017-08-07T09:51:24.999Z,145
2017-08-07T09:51:50.462Z,140
2017-08-07T09:52:15.908Z,135
2017-08-07T09:52:41.386Z,130
2017-08-07T09:53:06.881Z,130
2017-08-07T09:53:32.364Z,130
2017-08-07T09:53:57.817Z,150
2017-08-07T09:54:23.337Z,140
2017-08-07T09:54:48.819Z,125
2017-08-07T09:55:14.241Z,125
2017-08-07T09:55:39.701Z,125
2017-08-07T09:56:05.194Z,145
2017-08-07T09:56:30.666Z,140
2017-08-07T09:56:56.134Z,145
2017-08-07T09:57:21.624Z,145
2017-08-07T09:57:47.113Z,145
2017-08-07T09:58:12.570Z,145
2017-08-07T09:58:38.083Z,145
2017-08-07T09:59:03.534Z,125
2017-08-07T09:59:29.014Z,120
2017-08-07T09:59:54.492Z,145
2017-08-07T10:00:19.974Z,140
2017-08-07T10:00:45.465Z,140
2017-08-07T10:01:10.936Z,140
2017-08-07T10:01:36.417Z,145
2017-08-07T10:02:01.898Z,155
2017-08-07T10:02:27.354Z,145
2017-08-07T10:02:52.864Z,135
2017-08-07T10:03:18.342Z,135
2017-08-07T10:03:43.809Z,135
2017-08-07T10:04:09.257Z,135
2017-08-07T10:04:34.725Z,160
2017-08-07T10:05:00.196Z,155
2017-08-07T10:05:25.666Z,155
2017-08-07T10:05:51.143Z,150
2017-08-07T10:06:16.629Z,150
2017-08-07T10:06:42.160Z,145
2017-08-07T10:07:07.628Z,145
2017-08-07T10:07:33.070Z,145
2017-08-07T10:07:58.522Z,140
2017-08-07T10:08:24.025Z,140
2017-08-07T10:08:49.470Z,140
2017-08-07T10:09:14.976Z,140
2017-08-07T10:09:40.420Z,135
2017-08-07T10:10:05.932Z,135
2017-08-07T10:10:31.400Z,135
2017-08-07T10:10:56.917Z,135
2017-08-07T10:11:22.343Z,135
2017-08-07T10:11:47.809Z,135
2017-08-07T10:12:13.273Z,130
2017-08-07T10:12:38.727Z,135
2017-08-07T10:13:04.184Z,130
2017-08-07T10:13:29.661Z,125
2017-08-07T10:13:55.102Z,130
2017-08-07T10:14:20.573Z,130
2017-08-07T10:14:46.068Z,130
2017-08-07T10:15:11.525Z,130
2017-08-07T10:15:36.982Z,115
2017-08-07T10:16:02.495Z,110
2017-08-07T10:16:27.966Z,115
2017-08-07T10:16:53.443Z,115
2017-08-07T10:17:18.978Z,120
2017-08-07T10:17:44.392Z,140
2017-08-07T10:18:09.945Z,155
2017-08-07T10:18:35.376Z,170
2017-08-07T10:19:00.866Z,185
2017-08-07T10:19:26.290Z,205
2017-08-07T10:19:51.770Z,220
2017-08-07T10:20:17.221Z,235
2017-08-07T10:20:42.690Z,240
2017-08-07T10:21:08.160Z,240
2017-08-07T10:21:33.649Z,250
2017-08-07T10:21:59.083Z,255
2017-08-07T10:22:24.520Z,255
2017-08-07T10:22:50.009Z,255
2017-08-07T10:23:15.454Z,255
2017-08-07T10:23:40.932Z,250
2017-08-07T10:24:06.407Z,245
2017-08-07T10:24:31.889Z,235
2017-08-07T10:24:57.388Z,235
2017-08-07T10:25:22.809Z,240
2017-08-07T10:25:48.266Z,240
2017-08-07T10:26:13.728Z,250
2017-08-07T10:26:39.215Z,245
2017-08-07T10:27:04.710Z,240
2017-08-07T10:27:30.137Z,235
2017-08-07T10:27:55.592Z,235
2017-08-07T10:28:21.083Z,230
2017-08-07T10:28:46.533Z,225
2017-08-07T10:29:12.008Z,225
2017-08-07T10:29:37.500Z,220
2017-08-07T10:30:02.984Z,215
2017-08-07T10:30:28.467Z,200
2017-08-07T10:30:53.976Z,195
2017-08-07T10:31:19.403Z,185
2017-08-07T10:31:44.864Z,175
2017-08-07T10:32:10.307Z,165
2017-08-07T10:32:35.764Z,155
2017-08-07T10:33:01.263Z,145
2017-08-07T10:33:26.747Z,140
2017-08-07T10:33:52.259Z,140
2017-08-07T10:34:17.692Z,135
2017-08-07T10:34:43.216Z,135
2017-08-07T10:35:08.676Z,130
2017-08-07T10:35:34.149Z,115
2017-08-07T10:35:59.648Z,115
2017-08-07T10:36:25.175Z,110
2017-08-07T10:36:50.621Z,110
2017-08-07T10:37:16.110Z,110
2017-08-07T10:37:41.584Z,105
2017-08-07T10:38:07.073Z,125
2017-08-07T10:38:32.614Z,125
2017-08-07T10:38:58.055Z,125
2017-08-07T10:39:23.544Z,120
2017-08-07T10:39:49.064Z,125
2017-08-07T10:40:14.564Z,125
2017-08-07T10:40:40.003Z,130
2017-08-07T10:41:05.470Z,130
2017-08-07T10:41:30.961Z,125
2017-08-07T10:41:56.432Z,125
2017-08-07T10:42:21.919Z,125
2017-08-07T10:42:47.404Z,125
2017-08-07T10:43:12.912Z,125
2017-08-07T10:43:38.410Z,125
2017-08-07T10:44:03.874Z,125
2017-08-07T10:44:29.343Z,130
2017-08-07T10:44:54.823Z,130
2017-08-07T10:45:20.504Z,130
2017-08-07T10:45:45.924Z,135
2017-08-07T10:46:11.468Z,130
2017-08-07T10:46:36.873Z,130
2017-08-07T10:47:02.396Z,130
2017-08-07T10:47:27.849Z,130
2017-08-07T10:47:53.264Z,130
2017-08-07T10:48:18.741Z,120
2017-08-07T10:48:44.198Z,130
2017-08-07T10:49:09.641Z,130
2017-08-07T10:49:35.153Z,125
2017-08-07T10:50:00.684Z,130
2017-08-07T10:50:26.192Z,130
2017-08-07T10:50:51.705Z,120
2017-08-07T10:51:17.161Z,125
2017-08-07T10:51:42.657Z,125
2017-08-07T10:52:08.142Z,120
2017-08-07T10:52:33.627Z,120
2017-08-07T10:52:59.122Z,120
2017-08-07T10:53:24.549Z,120
2017-08-07T10:53:50.003Z,120
2017-08-07T10:54:15.473Z,140
2017-08-07T10:54:40.945Z,140
2017-08-07T10:55:06.438Z,145
2017-08-07T10:55:31.924Z,145
2017-08-07T10:55:57.363Z,145
2017-08-07T10:56:22.828Z,145
2017-08-07T10:56:48.417Z,130
2017-08-07T10:57:13.866Z,135
2017-08-07T10:57:39.317Z,130
2017-08-07T10:58:04.788Z,130
2017-08-07T10:58:30.275Z,135
2017-08-07T10:58:55.766Z,135
2017-08-07T10:59:21.247Z,140
2017-08-07T10:59:46.723Z,145
2017-08-07T11:00:12.207Z,150
2017-08-07T11:00:37.682Z,170
2017-08-07T11:01:03.219Z,185
2017-08-07T11:01:28.688Z,190
2017-08-07T11:01:54.156Z,185
2017-08-07T11:02:19.606Z,180
2017-08-07T11:02:45.098Z,175
2017-08-07T11:03:10.570Z,170
2017-08-07T11:03:36.081Z,165
2017-08-07T11:04:01.545Z,160
2017-08-07T11:04:27.109Z,155
2017-08-07T11:04:52.584Z,150
2017-08-07T11:05:18.114Z,145
2017-08-07T11:05:43.607Z,145
2017-08-07T11:06:09.105Z,145
2017-08-07T11:06:34.576Z,145
2017-08-07T11:07:00.064Z,140
2017-08-07T11:07:25.597Z,140
2017-08-07T11:07:51.114Z,135
2017-08-07T11:08:16.578Z,135
2017-08-07T11:08:42.071Z,135
2017-08-07T11:09:07.559Z,135
2017-08-07T11:09:33.051Z,135
2017-08-07T11:09:58.531Z,135
2017-08-07T11:10:23.972Z,135
2017-08-07T11:10:49.458Z,135
2017-08-07T11:11:14.998Z,135
2017-08-07T11:11:40.417Z,130
2017-08-07T11:12:05.922Z,125
2017-08-07T11:12:31.359Z,120
2017-08-07T11:12:56.857Z,120
2017-08-07T11:13:22.331Z,135
2017-08-07T11:13:47.831Z,140
2017-08-07T11:14:13.293Z,135
2017-08-07T11:14:38.780Z,135
2017-08-07T11:15:04.247Z,140
2017-08-07T11:15:29.723Z,140
2017-08-07T11:15:55.196Z,150
2017-08-07T11:16:20.643Z,170
2017-08-07T11:16:46.140Z,175
2017-08-07T11:17:11.616Z,180
2017-08-07T11:17:37.129Z,185
2017-08-07T11:18:02.629Z,190
2017-08-07T11:18:28.129Z,200
2017-08-07T11:18:53.583Z,205
2017-08-07T11:19:19.076Z,195
2017-08-07T11:19:44.548Z,195
2017-08-07T11:20:10.002Z,195
2017-08-07T11:20:35.521Z,200
2017-08-07T11:21:00.984Z,210
2017-08-07T11:21:26.567Z,215
2017-08-07T11:21:52.040Z,215
2017-08-07T11:22:17.565Z,220
2017-08-07T11:22:43.035Z,200
2017-08-07T11:23:08.496Z,195
2017-08-07T11:23:33.977Z,180
2017-08-07T11:23:59.439Z,170
2017-08-07T11:24:24.911Z,165
2017-08-07T11:24:50.376Z,160
2017-08-07T11:25:15.840Z,150
2017-08-07T11:25:41.277Z,140
2017-08-07T11:26:06.769Z,140
2017-08-07T11:26:32.285Z,140
2017-08-07T11:26:57.747Z,140
2017-08-07T11:27:23.215Z,135
2017-08-07T11:27:48.741Z,140